This is the latest recevied weather packets stored in our database for station/object K6LCM-13. If no packets are shown the sender has not sent any weather packets the latest 10 day(s).
| Time | Temp. | Humidity | Pressure | Rain* | Wind** | Luminosity | Snow |
|---|---|---|---|---|---|---|---|
| 1777502753 | 19.44° C | 63% | 1014.8 hPa | 0 mm | - | - | - |
| 1777502213 | 18.89° C | 64% | 1014.9 hPa | 0 mm | - | - | - |
| 1777501673 | 19.44° C | 64% | 1015.1 hPa | 0 mm | - | - | - |
| 1777500593 | 18.33° C | 71% | 1015.3 hPa | 0 mm | - | - | - |
| 1777500052 | 18.33° C | 73% | 1015.5 hPa | 0 mm | - | - | - |
| 1777499512 | 18.33° C | 73% | 1015.5 hPa | 0 mm | - | - | - |
| 1777498973 | 18.89° C | 72% | 1015.3 hPa | 0 mm | - | - | - |
| 1777498432 | 18.33° C | 75% | 1015.4 hPa | 0 mm | - | - | - |
| 1777497893 | 18.33° C | 74% | 1015.3 hPa | 0 mm | - | - | - |
| 1777497353 | 18.33° C | 75% | 1015.3 hPa | 0 mm | - | - | - |
| 1777496812 | 18.89° C | 72% | 1015.4 hPa | 0 mm | - | - | - |
| 1777496273 | 19.44° C | 70% | 1015.4 hPa | 0 mm | - | - | - |
| 1777494848 | 20.56° C | 59% | 1015.5 hPa | 0 mm | - | - | - |
| 1777494309 | 19.44° C | 61% | 1015.7 hPa | 0 mm | - | - | - |
| 1777493768 | 19.44° C | 67% | 1015.7 hPa | 0 mm | - | - | - |
| 1777492823 | 19.44° C | 63% | 1015.9 hPa | 0 mm | - | - | - |
| 1777492283 | 19.44° C | 65% | 1016.1 hPa | 0 mm | - | - | - |
| 1777491744 | 19.44° C | 61% | 1016.1 hPa | 0 mm | - | - | - |
| 1777491055 | 19.44° C | 59% | 1016.3 hPa | 0 mm | - | - | - |
| 1777490515 | 19.44° C | 61% | 1016.3 hPa | 0 mm | - | - | - |
| 1777489435 | 19.44° C | 63% | 1016.6 hPa | 0 mm | - | - | - |
| 1777488355 | 19.44° C | 61% | 1016.8 hPa | 0 mm | - | - | - |
| 1777487815 | 19.44° C | 64% | 1016.9 hPa | 0 mm | - | - | - |
| 1777487275 | 20° C | 67% | 1017 hPa | 0 mm | - | - | - |
| 1777486735 | 19.44° C | 66% | 1017.2 hPa | 0 mm | - | - | - |
* Rain latest hour (hover to see other rain measurements)
** Current wind speed in m/s (hover to see current wind gust speed)